Main page
METAR-TAF:

METAR-TAF

Airports :

Kosrae, Micronesia

Kosrae International Airport

latitude: 05-21N, longitude: 162-57E, elevation: 3 m

Current weather observation

The report was made 32 minutes ago, at 23:50 UTC
Wind 10 kt from the North
Temperature 31°C
Humidity 66%
Pressure 1011 hPa
Visibility: 16.1 km
Broken clouds at a height of 2100 ft, Towering cumulus.
Broken clouds at a height of 13000 ft
Broken clouds at a height of 30000 ft

METAR: PTSA 192350Z 01010KT 10SM BKN021TCU BKN130 BKN300 31/24 A2984 RMK TCU E LAST

Time: 11:22 (00:22 UTC)

Forecast

The report was made 42 minutes ago, at 23:40 UTC
Forecast valid from 20 at 00 UTC to 20 at 24 UTC
Wind 10 kt from the North/Northeast
Visibility: 10 km
Few clouds at a height of 2000 ft
Scattered clouds at a height of 5000 ft
showers in vicinity

TAF: PTSA 192340Z 2000/2024 03010KT P6SM VCSH FEW020 SCT050

Weather observations and forecasts of more than 4000 airports (METAR and TAF reports).

The available stations are represented by yellow and red dots on the map.

Hover mouse over dot to see the name of the station.

Then click to see weather observations and forecasts.

To change the map : click on the green buttons with a black cross to zoom in, on the green button with a dash to zoom out, or on the green arrows for adjacent maps.


METAR-TAF: